| Date | Time | Temp. (oF) | Dew Point (oF) | Rel. Hum. (%) | Press. (in.) | Wind Dir. | Wind Speed (mph) | Hourly Rainfall (in.) |
|
|---|---|---|---|---|---|---|---|---|---|
| 1 | 04/28 | 00:00 | 48 | 35 | 61 | 29.83 | N | 5 | 0.00 |
| 2 | 04/27 | 23:00 | 48 | 35 | 61 | 29.81 | N | 2 | 0.00 |
| 3 | 04/27 | 22:00 | 50 | 36 | 60 | 29.80 | NNW | 6 | 0.00 |
| 4 | 04/27 | 21:00 | 51 | 37 | 59 | 29.78 | WSW | 4 | 0.00 |
| 5 | 04/27 | 20:00 | 53 | 33 | 48 | 29.76 | WNW | 4 | 0.00 |
| 6 | 04/27 | 19:00 | 54 | 32 | 44 | 29.74 | N | 10 | 0.00 |
| 7 | 04/27 | 18:00 | 54 | 32 | 44 | 29.74 | NNW | 6 | 0.00 |
| 8 | 04/27 | 17:00 | 54 | 32 | 44 | 29.72 | N | 13 | 0.00 |
| 9 | 04/27 | 16:00 | 55 | 32 | 43 | 29.71 | NNW | 13 | 0.00 |
| 10 | 04/27 | 15:00 | 56 | 31 | 40 | 29.72 | NE | 7 | 0.00 |
| 11 | 04/27 | 14:00 | 56 | 33 | 43 | 29.73 | WNW | 6 | 0.00 |
| 12 | 04/27 | 13:00 | 56 | 34 | 45 | 29.73 | S | 6 | 0.00 |
| 13 | 04/27 | 12:00 | 55 | 32 | 42 | 29.73 | WNW | 12 | 0.00 |
| 14 | 04/27 | 11:00 | 55 | 33 | 44 | 29.73 | NE | 7 | 0.00 |
| 15 | 04/27 | 10:00 | 52 | 35 | 54 | 29.73 | N | 10 | 0.00 |
| 16 | 04/27 | 09:00 | 48 | 37 | 66 | 29.74 | WSW | 6 | 0.00 |
| 17 | 04/27 | 08:00 | 44 | 37 | 78 | 29.74 | WSW | 2 | 0.00 |
| 18 | 04/27 | 07:00 | 41 | 36 | 83 | 29.73 | W | 0 | 0.00 |
| 19 | 04/27 | 06:00 | 39 | 34 | 84 | 29.72 | S | 0 | 0.00 |
| 20 | 04/27 | 05:00 | 40 | 35 | 84 | 29.71 | SSW | 0 | 0.00 |
| 21 | 04/27 | 04:00 | 39 | 33 | 82 | 29.72 | S | 0 | 0.00 |
| 22 | 04/27 | 03:00 | 39 | 31 | 74 | 29.72 | SSW | 0 | 0.00 |
| 23 | 04/27 | 02:00 | 41 | 31 | 68 | 29.73 | W | 0 | 0.00 |
| 24 | 04/27 | 01:00 | 45 | 29 | 55 | 29.74 | SSW | 0 | 0.00 |